Atlantic, Pennsylvania
Current Conditions -  °F | °C
As of 8:53 AM on Thursday 23 Oct 2014 (Local Time) from KGKJ Reporting Station
Clear Clear  
Wind Chill: 44°   Ceiling: Unl
Heat Index: 46°   Visibility: 10mi
Dew Point: 42°   Wind: 5mph
Humidity: 86%   Direction: NA
Pressure: 30.14"   Gusts: NA
Location:  41.5°N, 80.33°W
Report Text: KGKJ 231253Z AUTO VRB04KT 10SM CLR 08/06 A3014 RMK AO2 SLP213 T00780056 TSNO
Loading
Personal Weather Stations






























Interactive Weather Map New forecast layout! Learn more

10-Day Weather Forecast

Advertisements
Track Severe Weather on mobile